Terminal Aerodrome Forecast
Issued by NWS Jackson, MS

Home | Current Version | Previous Version | Text Only | Print | Product List | Glossary On
Versions: 1 2 3 4 5 6 7 8 9 10 11 12 13 14 15 16 17 18 19
000
FTUS44 KJAN 281124
TAFMEI
TAF
KMEI 281124Z 2812/2912 VRB03KT P6SM VCSH BKN006 OVC030
     FM281400 15004KT P6SM VCSH SCT015 BKN030
     FM281600 16006KT P6SM SCT040
     FM282000 16006KT P6SM VCTS BKN050CB
     FM290000 12003KT P6SM BKN100
     FM291000 00000KT 4SM BR OVC003=

USA.gov is the U.S. government's official web portal to all federal, state and local government web resources and services.